sensor_id;sensor_type;location;lat;lon;timestamp;temperature;humidity
56046;DHT22;41913;51.030;3.706;2023-05-07T00:00:20;22.80;83.80
56046;DHT22;41913;51.030;3.706;2023-05-07T00:02:46;22.80;83.90
56046;DHT22;41913;51.030;3.706;2023-05-07T00:05:12;22.80;83.80
56046;DHT22;41913;51.030;3.706;2023-05-07T00:07:37;22.80;83.90
56046;DHT22;41913;51.030;3.706;2023-05-07T00:10:05;22.80;83.90
56046;DHT22;41913;51.030;3.706;2023-05-07T00:12:32;22.80;83.90
56046;DHT22;41913;51.030;3.706;2023-05-07T00:15:00;22.80;83.90
56046;DHT22;41913;51.030;3.706;2023-05-07T00:17:26;22.80;83.90
56046;DHT22;41913;51.030;3.706;2023-05-07T00:19:54;22.80;84.00
56046;DHT22;41913;51.030;3.706;2023-05-07T00:22:20;22.80;84.00
56046;DHT22;41913;51.030;3.706;2023-05-07T00:24:47;22.80;84.00
56046;DHT22;41913;51.030;3.706;2023-05-07T00:27:12;22.80;84.00
56046;DHT22;41913;51.030;3.706;2023-05-07T00:29:38;22.80;84.00
56046;DHT22;41913;51.030;3.706;2023-05-07T00:32:04;22.80;84.00
56046;DHT22;41913;51.030;3.706;2023-05-07T00:34:30;22.70;83.90
56046;DHT22;41913;51.030;3.706;2023-05-07T00:36:56;22.80;84.00
56046;DHT22;41913;51.030;3.706;2023-05-07T00:39:22;22.80;84.00
56046;DHT22;41913;51.030;3.706;2023-05-07T00:41:47;22.80;84.00
56046;DHT22;41913;51.030;3.706;2023-05-07T00:44:13;22.80;84.00
56046;DHT22;41913;51.030;3.706;2023-05-07T00:46:40;22.80;84.00
56046;DHT22;41913;51.030;3.706;2023-05-07T00:49:06;22.80;84.00
56046;DHT22;41913;51.030;3.706;2023-05-07T00:51:32;22.80;84.00
56046;DHT22;41913;51.030;3.706;2023-05-07T00:54:00;22.80;84.00
56046;DHT22;41913;51.030;3.706;2023-05-07T00:56:27;22.80;84.00
56046;DHT22;41913;51.030;3.706;2023-05-07T00:58:53;22.80;84.00
56046;DHT22;41913;51.030;3.706;2023-05-07T01:01:18;22.80;84.00
56046;DHT22;41913;51.030;3.706;2023-05-07T01:03:44;22.70;83.90
56046;DHT22;41913;51.030;3.706;2023-05-07T01:06:10;22.80;84.00
56046;DHT22;41913;51.030;3.706;2023-05-07T01:08:39;22.80;84.00
56046;DHT22;41913;51.030;3.706;2023-05-07T01:11:06;22.80;84.00
56046;DHT22;41913;51.030;3.706;2023-05-07T01:13:33;22.80;84.00
56046;DHT22;41913;51.030;3.706;2023-05-07T01:16:00;22.70;83.90
56046;DHT22;41913;51.030;3.706;2023-05-07T01:18:25;22.80;84.00
56046;DHT22;41913;51.030;3.706;2023-05-07T01:20:52;22.80;84.00
56046;DHT22;41913;51.030;3.706;2023-05-07T01:23:18;22.80;84.00
56046;DHT22;41913;51.030;3.706;2023-05-07T01:25:51;22.70;84.00
56046;DHT22;41913;51.030;3.706;2023-05-07T01:28:17;22.70;84.00
56046;DHT22;41913;51.030;3.706;2023-05-07T01:30:46;22.70;84.00
56046;DHT22;41913;51.030;3.706;2023-05-07T01:33:16;22.70;84.00
56046;DHT22;41913;51.030;3.706;2023-05-07T01:35:45;22.80;84.00
56046;DHT22;41913;51.030;3.706;2023-05-07T01:38:13;22.70;84.00
56046;DHT22;41913;51.030;3.706;2023-05-07T01:40:39;22.70;84.00
56046;DHT22;41913;51.030;3.706;2023-05-07T01:43:05;22.70;84.00
56046;DHT22;41913;51.030;3.706;2023-05-07T01:45:32;22.70;84.10
56046;DHT22;41913;51.030;3.706;2023-05-07T01:47:58;22.70;84.10
56046;DHT22;41913;51.030;3.706;2023-05-07T01:50:25;22.70;84.10
56046;DHT22;41913;51.030;3.706;2023-05-07T01:52:52;22.70;84.10
56046;DHT22;41913;51.030;3.706;2023-05-07T01:55:18;22.70;84.10
56046;DHT22;41913;51.030;3.706;2023-05-07T01:57:44;22.70;84.10
56046;DHT22;41913;51.030;3.706;2023-05-07T02:00:10;22.70;84.10
56046;DHT22;41913;51.030;3.706;2023-05-07T02:02:36;22.70;84.10
56046;DHT22;41913;51.030;3.706;2023-05-07T02:05:03;22.80;84.20
56046;DHT22;41913;51.030;3.706;2023-05-07T02:07:30;22.70;84.10
56046;DHT22;41913;51.030;3.706;2023-05-07T02:09:56;22.70;84.10
56046;DHT22;41913;51.030;3.706;2023-05-07T02:12:22;22.70;84.20
56046;DHT22;41913;51.030;3.706;2023-05-07T02:14:48;22.70;84.10
56046;DHT22;41913;51.030;3.706;2023-05-07T02:17:14;22.70;84.20
56046;DHT22;41913;51.030;3.706;2023-05-07T02:19:40;22.70;84.20
56046;DHT22;41913;51.030;3.706;2023-05-07T02:22:06;22.70;84.20
56046;DHT22;41913;51.030;3.706;2023-05-07T02:24:32;22.70;84.30
56046;DHT22;41913;51.030;3.706;2023-05-07T02:26:57;22.70;84.20
56046;DHT22;41913;51.030;3.706;2023-05-07T02:29:23;22.70;84.20
56046;DHT22;41913;51.030;3.706;2023-05-07T02:31:49;22.70;84.20
56046;DHT22;41913;51.030;3.706;2023-05-07T02:34:16;22.70;84.30
56046;DHT22;41913;51.030;3.706;2023-05-07T02:36:43;22.70;84.30
56046;DHT22;41913;51.030;3.706;2023-05-07T02:39:09;22.70;84.30
56046;DHT22;41913;51.030;3.706;2023-05-07T02:41:34;22.70;84.30
56046;DHT22;41913;51.030;3.706;2023-05-07T02:44:00;22.70;84.30
56046;DHT22;41913;51.030;3.706;2023-05-07T02:46:26;22.70;84.30
56046;DHT22;41913;51.030;3.706;2023-05-07T02:48:51;22.70;84.30
56046;DHT22;41913;51.030;3.706;2023-05-07T02:51:21;22.70;84.40
56046;DHT22;41913;51.030;3.706;2023-05-07T02:53:47;22.70;84.40
56046;DHT22;41913;51.030;3.706;2023-05-07T02:56:12;22.70;84.50
56046;DHT22;41913;51.030;3.706;2023-05-07T02:58:38;22.70;84.50
56046;DHT22;41913;51.030;3.706;2023-05-07T03:01:05;22.70;84.50
56046;DHT22;41913;51.030;3.706;2023-05-07T03:03:31;22.70;84.50
56046;DHT22;41913;51.030;3.706;2023-05-07T03:05:57;22.70;84.50
56046;DHT22;41913;51.030;3.706;2023-05-07T03:08:22;22.70;84.50
56046;DHT22;41913;51.030;3.706;2023-05-07T03:10:48;22.70;84.50
56046;DHT22;41913;51.030;3.706;2023-05-07T03:13:14;22.70;84.50
56046;DHT22;41913;51.030;3.706;2023-05-07T03:15:40;22.70;84.50
56046;DHT22;41913;51.030;3.706;2023-05-07T03:18:06;22.70;84.50
56046;DHT22;41913;51.030;3.706;2023-05-07T03:20:31;22.70;84.50
56046;DHT22;41913;51.030;3.706;2023-05-07T03:22:57;22.70;84.50
56046;DHT22;41913;51.030;3.706;2023-05-07T03:25:23;22.70;84.50
56046;DHT22;41913;51.030;3.706;2023-05-07T03:27:48;22.70;84.50
56046;DHT22;41913;51.030;3.706;2023-05-07T03:30:14;22.70;84.50
56046;DHT22;41913;51.030;3.706;2023-05-07T03:32:40;22.70;84.50
56046;DHT22;41913;51.030;3.706;2023-05-07T03:35:06;22.70;85.00
56046;DHT22;41913;51.030;3.706;2023-05-07T03:37:32;22.70;84.50
56046;DHT22;41913;51.030;3.706;2023-05-07T03:39:58;22.70;84.50
56046;DHT22;41913;51.030;3.706;2023-05-07T03:42:23;22.70;84.50
56046;DHT22;41913;51.030;3.706;2023-05-07T03:44:49;22.70;84.50
56046;DHT22;41913;51.030;3.706;2023-05-07T03:47:15;22.70;84.50
56046;DHT22;41913;51.030;3.706;2023-05-07T03:49:40;22.70;84.50
56046;DHT22;41913;51.030;3.706;2023-05-07T03:52:06;22.70;84.50
56046;DHT22;41913;51.030;3.706;2023-05-07T03:54:32;22.70;84.50
56046;DHT22;41913;51.030;3.706;2023-05-07T03:56:58;22.70;84.50
56046;DHT22;41913;51.030;3.706;2023-05-07T03:59:23;22.70;84.50
56046;DHT22;41913;51.030;3.706;2023-05-07T04:01:50;22.70;84.60
56046;DHT22;41913;51.030;3.706;2023-05-07T04:04:16;22.70;84.60
56046;DHT22;41913;51.030;3.706;2023-05-07T04:06:42;22.70;84.50
56046;DHT22;41913;51.030;3.706;2023-05-07T04:09:08;22.70;84.50
56046;DHT22;41913;51.030;3.706;2023-05-07T04:11:35;22.70;84.60
56046;DHT22;41913;51.030;3.706;2023-05-07T04:14:02;22.70;84.60
56046;DHT22;41913;51.030;3.706;2023-05-07T04:16:27;22.70;84.60
56046;DHT22;41913;51.030;3.706;2023-05-07T04:18:53;22.70;84.60
56046;DHT22;41913;51.030;3.706;2023-05-07T04:21:20;22.70;84.60
56046;DHT22;41913;51.030;3.706;2023-05-07T04:23:47;22.70;84.60
56046;DHT22;41913;51.030;3.706;2023-05-07T04:26:13;22.70;84.70
56046;DHT22;41913;51.030;3.706;2023-05-07T04:28:39;22.70;84.60
56046;DHT22;41913;51.030;3.706;2023-05-07T04:31:05;22.70;84.60
56046;DHT22;41913;51.030;3.706;2023-05-07T04:33:32;22.70;84.70
56046;DHT22;41913;51.030;3.706;2023-05-07T04:35:58;22.70;84.60
56046;DHT22;41913;51.030;3.706;2023-05-07T04:38:29;22.70;84.70
56046;DHT22;41913;51.030;3.706;2023-05-07T04:40:55;22.70;84.60
56046;DHT22;41913;51.030;3.706;2023-05-07T04:43:22;22.70;84.70
56046;DHT22;41913;51.030;3.706;2023-05-07T04:45:50;22.70;84.70
56046;DHT22;41913;51.030;3.706;2023-05-07T04:48:15;22.70;84.70
56046;DHT22;41913;51.030;3.706;2023-05-07T04:50:41;22.60;84.70
56046;DHT22;41913;51.030;3.706;2023-05-07T04:53:07;22.60;84.70
56046;DHT22;41913;51.030;3.706;2023-05-07T04:55:33;22.70;84.70
56046;DHT22;41913;51.030;3.706;2023-05-07T04:57:58;22.60;85.30
56046;DHT22;41913;51.030;3.706;2023-05-07T05:00:26;22.70;84.70
56046;DHT22;41913;51.030;3.706;2023-05-07T05:02:52;22.60;84.70
56046;DHT22;41913;51.030;3.706;2023-05-07T05:05:18;22.60;84.70
56046;DHT22;41913;51.030;3.706;2023-05-07T05:07:43;22.60;84.70
56046;DHT22;41913;51.030;3.706;2023-05-07T05:10:10;22.60;84.70
56046;DHT22;41913;51.030;3.706;2023-05-07T05:12:36;22.60;84.70
56046;DHT22;41913;51.030;3.706;2023-05-07T05:15:02;22.60;84.70
56046;DHT22;41913;51.030;3.706;2023-05-07T05:17:28;22.60;84.80
56046;DHT22;41913;51.030;3.706;2023-05-07T05:19:53;22.60;84.80
56046;DHT22;41913;51.030;3.706;2023-05-07T05:22:19;22.60;84.80
56046;DHT22;41913;51.030;3.706;2023-05-07T05:24:45;22.60;84.70
56046;DHT22;41913;51.030;3.706;2023-05-07T05:27:10;22.60;84.80
56046;DHT22;41913;51.030;3.706;2023-05-07T05:29:36;22.60;84.50
56046;DHT22;41913;51.030;3.706;2023-05-07T05:32:03;22.60;84.40
56046;DHT22;41913;51.030;3.706;2023-05-07T05:34:28;22.60;84.40
56046;DHT22;41913;51.030;3.706;2023-05-07T05:36:54;22.60;84.30
56046;DHT22;41913;51.030;3.706;2023-05-07T05:39:20;22.60;84.40
56046;DHT22;41913;51.030;3.706;2023-05-07T05:41:46;22.70;84.60
56046;DHT22;41913;51.030;3.706;2023-05-07T05:44:12;22.70;84.70
56046;DHT22;41913;51.030;3.706;2023-05-07T05:46:38;22.70;85.00
56046;DHT22;41913;51.030;3.706;2023-05-07T05:49:03;22.70;85.10
56046;DHT22;41913;51.030;3.706;2023-05-07T05:51:29;22.70;85.70
56046;DHT22;41913;51.030;3.706;2023-05-07T05:53:56;22.80;85.90
56046;DHT22;41913;51.030;3.706;2023-05-07T05:56:21;22.80;85.40
56046;DHT22;41913;51.030;3.706;2023-05-07T05:58:47;22.90;84.90
56046;DHT22;41913;51.030;3.706;2023-05-07T06:01:13;22.90;84.70
56046;DHT22;41913;51.030;3.706;2023-05-07T06:03:38;22.90;84.90
56046;DHT22;41913;51.030;3.706;2023-05-07T06:06:04;22.90;85.00
56046;DHT22;41913;51.030;3.706;2023-05-07T06:08:30;23.00;84.80
56046;DHT22;41913;51.030;3.706;2023-05-07T06:10:56;23.00;84.40
56046;DHT22;41913;51.030;3.706;2023-05-07T06:13:22;23.00;84.20
56046;DHT22;41913;51.030;3.706;2023-05-07T06:15:49;23.00;83.70
56046;DHT22;41913;51.030;3.706;2023-05-07T06:18:15;23.00;83.80
56046;DHT22;41913;51.030;3.706;2023-05-07T06:20:41;23.00;84.60
56046;DHT22;41913;51.030;3.706;2023-05-07T06:23:06;22.90;85.10
56046;DHT22;41913;51.030;3.706;2023-05-07T06:25:32;22.90;85.20
56046;DHT22;41913;51.030;3.706;2023-05-07T06:27:58;22.90;85.60
56046;DHT22;41913;51.030;3.706;2023-05-07T06:30:23;22.90;86.10
56046;DHT22;41913;51.030;3.706;2023-05-07T06:32:49;22.90;86.10
56046;DHT22;41913;51.030;3.706;2023-05-07T06:35:15;22.90;86.60
56046;DHT22;41913;51.030;3.706;2023-05-07T06:37:41;22.90;86.80
56046;DHT22;41913;51.030;3.706;2023-05-07T06:40:09;22.90;87.10
56046;DHT22;41913;51.030;3.706;2023-05-07T06:42:38;22.80;87.50
56046;DHT22;41913;51.030;3.706;2023-05-07T06:45:04;22.80;87.60
56046;DHT22;41913;51.030;3.706;2023-05-07T06:47:30;22.70;87.70
56046;DHT22;41913;51.030;3.706;2023-05-07T06:49:55;22.70;87.90
56046;DHT22;41913;51.030;3.706;2023-05-07T06:52:21;22.70;88.00
56046;DHT22;41913;51.030;3.706;2023-05-07T06:54:47;22.60;88.20
56046;DHT22;41913;51.030;3.706;2023-05-07T06:57:12;22.60;88.30
56046;DHT22;41913;51.030;3.706;2023-05-07T06:59:38;22.60;88.50
56046;DHT22;41913;51.030;3.706;2023-05-07T07:02:04;22.60;89.10
56046;DHT22;41913;51.030;3.706;2023-05-07T07:04:29;22.50;88.60
56046;DHT22;41913;51.030;3.706;2023-05-07T07:06:56;22.50;88.80
56046;DHT22;41913;51.030;3.706;2023-05-07T07:09:22;22.50;89.10
56046;DHT22;41913;51.030;3.706;2023-05-07T07:11:48;22.50;89.20
56046;DHT22;41913;51.030;3.706;2023-05-07T07:14:13;22.50;89.30
56046;DHT22;41913;51.030;3.706;2023-05-07T07:16:39;22.40;89.30
56046;DHT22;41913;51.030;3.706;2023-05-07T07:19:05;22.40;89.40
56046;DHT22;41913;51.030;3.706;2023-05-07T07:21:31;22.40;89.60
56046;DHT22;41913;51.030;3.706;2023-05-07T07:23:57;22.40;89.60
56046;DHT22;41913;51.030;3.706;2023-05-07T07:26:23;22.40;89.70
56046;DHT22;41913;51.030;3.706;2023-05-07T07:28:48;22.40;89.80
56046;DHT22;41913;51.030;3.706;2023-05-07T07:31:14;22.30;89.80
56046;DHT22;41913;51.030;3.706;2023-05-07T07:33:40;22.30;89.90
56046;DHT22;41913;51.030;3.706;2023-05-07T07:36:07;22.30;90.00
56046;DHT22;41913;51.030;3.706;2023-05-07T07:38:33;22.30;90.00
56046;DHT22;41913;51.030;3.706;2023-05-07T07:41:00;22.30;90.00
56046;DHT22;41913;51.030;3.706;2023-05-07T07:43:25;22.30;90.10
56046;DHT22;41913;51.030;3.706;2023-05-07T07:45:51;22.20;90.10
56046;DHT22;41913;51.030;3.706;2023-05-07T07:48:17;22.20;90.10
56046;DHT22;41913;51.030;3.706;2023-05-07T07:50:42;22.20;90.10
56046;DHT22;41913;51.030;3.706;2023-05-07T07:53:08;22.20;90.20
56046;DHT22;41913;51.030;3.706;2023-05-07T07:55:38;22.20;90.20
56046;DHT22;41913;51.030;3.706;2023-05-07T07:58:04;22.20;90.20
56046;DHT22;41913;51.030;3.706;2023-05-07T08:00:30;22.20;90.20
56046;DHT22;41913;51.030;3.706;2023-05-07T08:02:55;22.20;90.30
56046;DHT22;41913;51.030;3.706;2023-05-07T08:05:22;22.10;90.30
56046;DHT22;41913;51.030;3.706;2023-05-07T08:07:48;22.10;90.30
56046;DHT22;41913;51.030;3.706;2023-05-07T08:10:17;22.10;90.30
56046;DHT22;41913;51.030;3.706;2023-05-07T08:12:50;22.10;90.30
56046;DHT22;41913;51.030;3.706;2023-05-07T08:15:16;22.10;90.30
56046;DHT22;41913;51.030;3.706;2023-05-07T08:17:42;22.10;90.40
56046;DHT22;41913;51.030;3.706;2023-05-07T08:20:08;22.00;90.40
56046;DHT22;41913;51.030;3.706;2023-05-07T08:22:35;22.00;90.40
56046;DHT22;41913;51.030;3.706;2023-05-07T08:25:01;22.00;90.40
56046;DHT22;41913;51.030;3.706;2023-05-07T08:27:27;22.00;90.50
56046;DHT22;41913;51.030;3.706;2023-05-07T08:29:53;22.00;90.50
56046;DHT22;41913;51.030;3.706;2023-05-07T08:32:19;22.00;90.80
56046;DHT22;41913;51.030;3.706;2023-05-07T08:34:44;22.00;90.50
56046;DHT22;41913;51.030;3.706;2023-05-07T08:37:10;22.00;90.50
56046;DHT22;41913;51.030;3.706;2023-05-07T08:39:36;22.00;90.50
56046;DHT22;41913;51.030;3.706;2023-05-07T08:42:04;21.90;90.50
56046;DHT22;41913;51.030;3.706;2023-05-07T08:44:35;21.90;90.50
56046;DHT22;41913;51.030;3.706;2023-05-07T08:47:02;21.90;90.60
56046;DHT22;41913;51.030;3.706;2023-05-07T08:49:28;21.90;90.60
56046;DHT22;41913;51.030;3.706;2023-05-07T08:51:54;21.90;90.70
56046;DHT22;41913;51.030;3.706;2023-05-07T08:54:21;21.90;90.60
56046;DHT22;41913;51.030;3.706;2023-05-07T08:56:47;21.90;90.70
56046;DHT22;41913;51.030;3.706;2023-05-07T08:59:13;21.90;90.70
56046;DHT22;41913;51.030;3.706;2023-05-07T09:01:39;21.90;90.70
56046;DHT22;41913;51.030;3.706;2023-05-07T09:04:05;21.90;90.80
56046;DHT22;41913;51.030;3.706;2023-05-07T09:06:33;21.90;90.80
56046;DHT22;41913;51.030;3.706;2023-05-07T09:09:01;21.90;90.80
56046;DHT22;41913;51.030;3.706;2023-05-07T09:11:27;21.90;90.80
56046;DHT22;41913;51.030;3.706;2023-05-07T09:13:56;21.90;90.80
56046;DHT22;41913;51.030;3.706;2023-05-07T09:16:23;21.90;90.80
56046;DHT22;41913;51.030;3.706;2023-05-07T09:18:52;21.90;90.80
56046;DHT22;41913;51.030;3.706;2023-05-07T09:21:19;21.90;90.90
56046;DHT22;41913;51.030;3.706;2023-05-07T09:23:44;21.90;90.90
56046;DHT22;41913;51.030;3.706;2023-05-07T09:26:10;21.90;90.90
56046;DHT22;41913;51.030;3.706;2023-05-07T09:28:41;21.80;90.90
56046;DHT22;41913;51.030;3.706;2023-05-07T09:31:08;21.80;90.90
56046;DHT22;41913;51.030;3.706;2023-05-07T09:33:34;21.80;90.90
56046;DHT22;41913;51.030;3.706;2023-05-07T09:36:04;21.80;90.90
56046;DHT22;41913;51.030;3.706;2023-05-07T09:38:31;21.80;90.90
56046;DHT22;41913;51.030;3.706;2023-05-07T09:41:08;21.80;91.00
56046;DHT22;41913;51.030;3.706;2023-05-07T09:43:38;21.80;91.00
56046;DHT22;41913;51.030;3.706;2023-05-07T09:46:15;21.80;91.00
56046;DHT22;41913;51.030;3.706;2023-05-07T09:48:43;21.80;91.10
56046;DHT22;41913;51.030;3.706;2023-05-07T09:53:53;21.80;91.10
56046;DHT22;41913;51.030;3.706;2023-05-07T09:56:19;21.80;91.10
56046;DHT22;41913;51.030;3.706;2023-05-07T09:58:46;21.80;91.20
56046;DHT22;41913;51.030;3.706;2023-05-07T10:01:12;21.80;91.20
56046;DHT22;41913;51.030;3.706;2023-05-07T10:03:43;21.90;91.20
56046;DHT22;41913;51.030;3.706;2023-05-07T10:06:10;21.80;91.10
56046;DHT22;41913;51.030;3.706;2023-05-07T10:08:36;21.90;91.20
56046;DHT22;41913;51.030;3.706;2023-05-07T10:11:04;21.80;91.20
56046;DHT22;41913;51.030;3.706;2023-05-07T10:13:32;21.90;91.20
56046;DHT22;41913;51.030;3.706;2023-05-07T10:15:59;21.90;91.30
56046;DHT22;41913;51.030;3.706;2023-05-07T10:18:26;21.90;91.30
56046;DHT22;41913;51.030;3.706;2023-05-07T10:21:04;21.90;91.30
56046;DHT22;41913;51.030;3.706;2023-05-07T10:23:32;21.90;91.30
56046;DHT22;41913;51.030;3.706;2023-05-07T10:26:01;21.90;91.30
56046;DHT22;41913;51.030;3.706;2023-05-07T10:28:31;21.90;91.40
56046;DHT22;41913;51.030;3.706;2023-05-07T10:31:33;21.90;91.40
56046;DHT22;41913;51.030;3.706;2023-05-07T10:34:08;21.90;91.40
56046;DHT22;41913;51.030;3.706;2023-05-07T10:36:36;21.90;91.50
56046;DHT22;41913;51.030;3.706;2023-05-07T10:39:02;21.90;91.50
56046;DHT22;41913;51.030;3.706;2023-05-07T10:41:28;21.90;91.40
56046;DHT22;41913;51.030;3.706;2023-05-07T10:43:54;21.90;91.40
56046;DHT22;41913;51.030;3.706;2023-05-07T10:46:21;21.90;91.30
56046;DHT22;41913;51.030;3.706;2023-05-07T10:51:30;21.90;91.20
56046;DHT22;41913;51.030;3.706;2023-05-07T10:56:42;21.90;91.20
56046;DHT22;41913;51.030;3.706;2023-05-07T11:01:57;21.90;91.10
56046;DHT22;41913;51.030;3.706;2023-05-07T11:04:24;21.90;91.00
56046;DHT22;41913;51.030;3.706;2023-05-07T11:15:07;21.90;90.90
56046;DHT22;41913;51.030;3.706;2023-05-07T11:17:33;21.90;90.80
56046;DHT22;41913;51.030;3.706;2023-05-07T11:20:02;21.90;90.60
56046;DHT22;41913;51.030;3.706;2023-05-07T11:25:06;21.90;90.70
56046;DHT22;41913;51.030;3.706;2023-05-07T11:27:33;21.90;90.60
56046;DHT22;41913;51.030;3.706;2023-05-07T11:29:59;21.90;90.60
56046;DHT22;41913;51.030;3.706;2023-05-07T11:32:31;22.00;90.60
56046;DHT22;41913;51.030;3.706;2023-05-07T11:35:00;22.00;90.60
56046;DHT22;41913;51.030;3.706;2023-05-07T11:37:27;21.90;90.60
56046;DHT22;41913;51.030;3.706;2023-05-07T11:40:08;22.00;90.70
56046;DHT22;41913;51.030;3.706;2023-05-07T11:42:36;22.00;90.70
56046;DHT22;41913;51.030;3.706;2023-05-07T11:45:06;22.00;90.70
56046;DHT22;41913;51.030;3.706;2023-05-07T11:47:33;22.00;90.60
56046;DHT22;41913;51.030;3.706;2023-05-07T11:50:07;22.00;90.60
56046;DHT22;41913;51.030;3.706;2023-05-07T11:52:33;22.00;90.70
56046;DHT22;41913;51.030;3.706;2023-05-07T11:55:00;22.00;90.60
56046;DHT22;41913;51.030;3.706;2023-05-07T11:57:27;22.00;90.70
56046;DHT22;41913;51.030;3.706;2023-05-07T11:59:57;22.00;90.80
56046;DHT22;41913;51.030;3.706;2023-05-07T12:02:23;22.00;90.80
56046;DHT22;41913;51.030;3.706;2023-05-07T12:04:51;22.00;90.80
56046;DHT22;41913;51.030;3.706;2023-05-07T12:07:17;22.00;90.90
56046;DHT22;41913;51.030;3.706;2023-05-07T12:09:45;22.00;91.10
56046;DHT22;41913;51.030;3.706;2023-05-07T12:12:11;22.00;90.80
56046;DHT22;41913;51.030;3.706;2023-05-07T12:14:41;22.00;90.80
56046;DHT22;41913;51.030;3.706;2023-05-07T12:17:09;22.00;90.80
56046;DHT22;41913;51.030;3.706;2023-05-07T12:19:36;22.00;90.80
56046;DHT22;41913;51.030;3.706;2023-05-07T12:22:05;22.10;90.80
56046;DHT22;41913;51.030;3.706;2023-05-07T12:24:47;22.10;90.80
56046;DHT22;41913;51.030;3.706;2023-05-07T12:27:14;22.10;90.80
56046;DHT22;41913;51.030;3.706;2023-05-07T12:29:43;22.10;90.80
56046;DHT22;41913;51.030;3.706;2023-05-07T12:32:16;22.10;90.80
56046;DHT22;41913;51.030;3.706;2023-05-07T12:34:43;22.10;90.80
56046;DHT22;41913;51.030;3.706;2023-05-07T12:37:08;22.10;90.80
56046;DHT22;41913;51.030;3.706;2023-05-07T12:39:34;22.10;90.90
56046;DHT22;41913;51.030;3.706;2023-05-07T12:42:00;22.10;90.90
56046;DHT22;41913;51.030;3.706;2023-05-07T12:44:30;22.10;91.00
56046;DHT22;41913;51.030;3.706;2023-05-07T12:46:56;22.10;91.00
56046;DHT22;41913;51.030;3.706;2023-05-07T12:49:23;22.20;91.00
56046;DHT22;41913;51.030;3.706;2023-05-07T12:51:50;22.20;91.00
56046;DHT22;41913;51.030;3.706;2023-05-07T12:54:32;22.20;91.00
56046;DHT22;41913;51.030;3.706;2023-05-07T12:57:19;22.20;91.00
56046;DHT22;41913;51.030;3.706;2023-05-07T12:59:45;22.20;91.10
56046;DHT22;41913;51.030;3.706;2023-05-07T13:02:11;22.20;91.10
56046;DHT22;41913;51.030;3.706;2023-05-07T13:04:37;22.20;91.10
56046;DHT22;41913;51.030;3.706;2023-05-07T13:07:03;22.20;91.10
56046;DHT22;41913;51.030;3.706;2023-05-07T13:09:28;22.20;91.10
56046;DHT22;41913;51.030;3.706;2023-05-07T13:11:54;22.20;91.10
56046;DHT22;41913;51.030;3.706;2023-05-07T13:14:20;22.20;91.00
56046;DHT22;41913;51.030;3.706;2023-05-07T13:16:47;22.20;91.00
56046;DHT22;41913;51.030;3.706;2023-05-07T13:19:13;22.20;90.90
56046;DHT22;41913;51.030;3.706;2023-05-07T13:21:38;22.20;90.90
56046;DHT22;41913;51.030;3.706;2023-05-07T13:24:04;22.20;91.10
56046;DHT22;41913;51.030;3.706;2023-05-07T13:26:31;22.20;90.80
56046;DHT22;41913;51.030;3.706;2023-05-07T13:28:57;22.20;91.00
56046;DHT22;41913;51.030;3.706;2023-05-07T13:31:23;22.20;90.80
56046;DHT22;41913;51.030;3.706;2023-05-07T13:33:49;22.20;90.80
56046;DHT22;41913;51.030;3.706;2023-05-07T13:36:15;22.30;90.90
56046;DHT22;41913;51.030;3.706;2023-05-07T13:38:41;22.30;90.90
56046;DHT22;41913;51.030;3.706;2023-05-07T13:41:06;22.30;90.90
56046;DHT22;41913;51.030;3.706;2023-05-07T13:43:32;22.30;90.80
56046;DHT22;41913;51.030;3.706;2023-05-07T13:45:59;22.30;90.70
56046;DHT22;41913;51.030;3.706;2023-05-07T13:48:25;22.30;90.70
56046;DHT22;41913;51.030;3.706;2023-05-07T13:50:51;22.20;90.60
56046;DHT22;41913;51.030;3.706;2023-05-07T13:53:17;22.30;90.60
56046;DHT22;41913;51.030;3.706;2023-05-07T13:55:44;22.30;90.60
56046;DHT22;41913;51.030;3.706;2023-05-07T13:58:09;22.30;90.60
56046;DHT22;41913;51.030;3.706;2023-05-07T14:00:35;22.30;90.60
56046;DHT22;41913;51.030;3.706;2023-05-07T14:03:01;22.30;90.60
56046;DHT22;41913;51.030;3.706;2023-05-07T14:05:26;22.30;90.60
56046;DHT22;41913;51.030;3.706;2023-05-07T14:07:54;22.30;90.60
56046;DHT22;41913;51.030;3.706;2023-05-07T14:10:20;22.30;90.50
56046;DHT22;41913;51.030;3.706;2023-05-07T14:12:46;22.30;90.50
56046;DHT22;41913;51.030;3.706;2023-05-07T14:15:12;22.30;90.50
56046;DHT22;41913;51.030;3.706;2023-05-07T14:17:38;22.30;90.50
56046;DHT22;41913;51.030;3.706;2023-05-07T14:20:04;22.30;90.60
56046;DHT22;41913;51.030;3.706;2023-05-07T14:22:31;22.30;90.50
56046;DHT22;41913;51.030;3.706;2023-05-07T14:24:57;22.30;90.40
56046;DHT22;41913;51.030;3.706;2023-05-07T14:27:23;22.30;90.30
56046;DHT22;41913;51.030;3.706;2023-05-07T14:29:48;22.30;90.30
56046;DHT22;41913;51.030;3.706;2023-05-07T14:32:19;22.30;90.40
56046;DHT22;41913;51.030;3.706;2023-05-07T14:34:45;22.30;90.40
56046;DHT22;41913;51.030;3.706;2023-05-07T14:37:12;22.30;90.30
56046;DHT22;41913;51.030;3.706;2023-05-07T14:39:38;22.20;90.20
56046;DHT22;41913;51.030;3.706;2023-05-07T14:42:04;22.20;90.20
56046;DHT22;41913;51.030;3.706;2023-05-07T14:44:29;22.30;90.10
56046;DHT22;41913;51.030;3.706;2023-05-07T14:46:56;22.20;90.10
56046;DHT22;41913;51.030;3.706;2023-05-07T14:49:22;22.20;90.10
56046;DHT22;41913;51.030;3.706;2023-05-07T14:51:49;22.20;90.00
56046;DHT22;41913;51.030;3.706;2023-05-07T14:54:15;22.20;89.90
56046;DHT22;41913;51.030;3.706;2023-05-07T14:56:41;22.20;90.00
56046;DHT22;41913;51.030;3.706;2023-05-07T14:59:07;22.20;90.00
56046;DHT22;41913;51.030;3.706;2023-05-07T15:01:35;22.20;90.10
56046;DHT22;41913;51.030;3.706;2023-05-07T15:04:02;22.20;90.00
56046;DHT22;41913;51.030;3.706;2023-05-07T15:06:28;22.20;90.20
56046;DHT22;41913;51.030;3.706;2023-05-07T15:08:54;22.20;90.10
56046;DHT22;41913;51.030;3.706;2023-05-07T15:11:20;22.20;90.20
56046;DHT22;41913;51.030;3.706;2023-05-07T15:13:46;22.20;90.20
56046;DHT22;41913;51.030;3.706;2023-05-07T15:16:11;22.20;90.30
56046;DHT22;41913;51.030;3.706;2023-05-07T15:18:37;22.20;90.30
56046;DHT22;41913;51.030;3.706;2023-05-07T15:21:03;22.20;90.30
56046;DHT22;41913;51.030;3.706;2023-05-07T15:23:28;22.20;90.50
56046;DHT22;41913;51.030;3.706;2023-05-07T15:25:54;22.20;90.60
56046;DHT22;41913;51.030;3.706;2023-05-07T15:28:21;22.20;90.60
56046;DHT22;41913;51.030;3.706;2023-05-07T15:30:47;22.20;90.60
56046;DHT22;41913;51.030;3.706;2023-05-07T15:33:12;22.20;90.70
56046;DHT22;41913;51.030;3.706;2023-05-07T15:35:38;22.20;90.70
56046;DHT22;41913;51.030;3.706;2023-05-07T15:38:04;22.20;90.70
56046;DHT22;41913;51.030;3.706;2023-05-07T15:40:30;22.20;90.70
56046;DHT22;41913;51.030;3.706;2023-05-07T15:42:56;22.20;90.80
56046;DHT22;41913;51.030;3.706;2023-05-07T15:45:23;22.20;90.80
56046;DHT22;41913;51.030;3.706;2023-05-07T15:47:50;22.20;90.80